^^
Station Historical Data
Daily Summary for January 3, 2018 Units:  English    Metric   Both
« Previous Day
Next Day »
Daily Weekly Monthly Yearly Custom
  High: Low: Average:
Temperature: TemperatureC °F 1.2 °F 2.5 °F
Dew Point: DewpointC °F 0.2 °F 1.5 °F
Humidity: Humidity% 93% 93%
Wind Speed: WindSpeedKMHmph 0.0mph 1.4mph
Wind Gust: WindSpeedGustKMHmph - -
Wind- - SSE
Pressure: PressurehPa in 998.2 in -
Precipitation: 2.8 in    
Historical Graphs
 
 
Tabular Data for January 3, 2018
Time Temperature Dew Point Pressure Wind Wind Speed Wind Gust Humidity Rainfall Rate (Hourly) solar Conditions
TemperatureC °F DewpointC °F PressurehPa in Calm     Humidity% HourlyPrecipMM in SoftwareType W/m2 Conditions
00:04 3.3 °F 2.3 °F 1000.9 in South 1.0 mph   93% 0.0 in WeatherDisplay:10.37 W/m2 RA
00:09 3.3 °F 2.3 °F 1000.9 in SW 3.9 mph 8.0 mph 93% 0.0 in WeatherDisplay:10.37 W/m2 RA
00:14 3.3 °F 2.3 °F 1000.9 in Calm   5.6 mph 93% 0.0 in WeatherDisplay:10.37 W/m2 FEW
00:17 3.4 °F 2.4 °F 1000.9 in SSW 1.6 mph 5.6 mph 93% 0.0 in WeatherDisplay:10.37 W/m2 FEW
00:21 3.4 °F 2.4 °F 1000.9 in Calm     93% 0.0 in WeatherDisplay:10.37 W/m2 FEW
00:26 3.4 °F 2.4 °F 1000.9 in SSW 0.5 mph 9.3 mph 93% 0.0 in WeatherDisplay:10.37 W/m2 FEW
00:29 3.4 °F 2.4 °F 1000.9 in South 2.3 mph 5.6 mph 93% 0.0 in WeatherDisplay:10.37 W/m2 FEW
00:34 3.4 °F 2.4 °F 1000.9 in SE 4.0 mph 11.1 mph 93% 0.0 in WeatherDisplay:10.37 W/m2 FEW
00:39 3.4 °F 2.4 °F 1000.9 in SSW 1.6 mph 3.7 mph 93% 0.0 in WeatherDisplay:10.37 W/m2 FEW
00:44 3.4 °F 2.4 °F 1000.9 in Calm     93% 0.0 in WeatherDisplay:10.37 W/m2 FEW
00:49 3.4 °F 2.4 °F 1000.9 in SW 1.0 mph 13.0 mph 93% 0.0 in WeatherDisplay:10.37 W/m2 FEW
00:51 3.3 °F 2.3 °F 1000.9 in Calm   1.9 mph 93% 0.0 in WeatherDisplay:10.37 W/m2 FEW
00:52 3.3 °F 2.3 °F 1000.9 in Calm     93% 0.0 in WeatherDisplay:10.37 W/m2 FEW
00:57 3.3 °F 2.3 °F 1000.9 in SSE 7.2 mph 13.0 mph 93% 0.0 in WeatherDisplay:10.37 W/m2 FEW
01:00 3.4 °F 2.4 °F 1000.9 in SSE 2.4 mph 7.4 mph 93% 0.0 in WeatherDisplay:10.37 W/m2 FEW
01:03 3.4 °F 2.4 °F 1000.9 in East 3.2 mph 14.8 mph 93% 0.0 in WeatherDisplay:10.37 W/m2 FEW
01:06 3.4 °F 2.4 °F 1000.9 in SE 0.8 mph 11.3 mph 93% 0.0 in WeatherDisplay:10.37 W/m2 FEW
01:08 3.4 °F 2.4 °F 1000.9 in Calm     93% 0.0 in WeatherDisplay:10.37 W/m2 FEW
01:13 3.3 °F 2.3 °F 1000.9 in SE 7.1 mph 16.1 mph 93% 0.0 in WeatherDisplay:10.37 W/m2 FEW
01:15 3.4 °F 2.4 °F 1000.9 in SE 6.6 mph 20.4 mph 93% 0.0 in WeatherDisplay:10.37 W/m2 FEW
01:20 3.4 °F 2.4 °F 1000.9 in WSW 0.6 mph 7.4 mph 93% 0.0 in WeatherDisplay:10.37 W/m2 FEW
01:25 3.4 °F 2.4 °F 1000.9 in WSW 1.9 mph 9.3 mph 93% 0.0 in WeatherDisplay:10.37 W/m2 FEW
01:30 3.4 °F 2.4 °F 1000.9 in Calm   3.7 mph 93% 0.3 in WeatherDisplay:10.37 W/m2 RA
01:35 3.4 °F 2.4 °F 1000.9 in Calm   5.6 mph 93% 0.3 in WeatherDisplay:10.37 W/m2 RA
01:40 3.4 °F 2.4 °F 1000.9 in East 0.6 mph 5.6 mph 93% 0.3 in WeatherDisplay:10.37 W/m2 FEW
01:45 3.4 °F 2.4 °F 1000.9 in Calm   7.4 mph 93% 0.3 in WeatherDisplay:10.37 W/m2 FEW
01:50 3.4 °F 2.4 °F 1000.9 in SSE 2.7 mph 9.3 mph 93% 0.3 in WeatherDisplay:10.37 W/m2 FEW
01:51 3.4 °F 2.4 °F 1000.9 in SSE 2.4 mph 11.1 mph 93% 0.3 in WeatherDisplay:10.37 W/m2 FEW
01:56 3.4 °F 2.4 °F 1000.9 in East 2.3 mph 5.6 mph 93% 0.3 in WeatherDisplay:10.37 W/m2 FEW
02:01 3.4 °F 2.4 °F 1000.9 in South 2.7 mph 18.5 mph 93% 0.3 in WeatherDisplay:10.37 W/m2 FEW
02:06 3.4 °F 2.4 °F 1000.9 in ENE 0.6 mph   93% 0.3 in WeatherDisplay:10.37 W/m2 FEW
02:11 3.4 °F 2.4 °F 1000.9 in SSW 2.6 mph 7.4 mph 93% 0.3 in WeatherDisplay:10.37 W/m2 FEW
02:16 3.4 °F 2.4 °F 1000.9 in South 3.9 mph 14.8 mph 93% 0.3 in WeatherDisplay:10.37 W/m2 FEW
02:19 3.4 °F 2.4 °F 1000.9 in SSW 0.5 mph 5.6 mph 93% 0.3 in WeatherDisplay:10.37 W/m2 FEW
02:24 3.4 °F 2.4 °F 1000.9 in South 1.4 mph 5.6 mph 93% 0.3 in WeatherDisplay:10.37 W/m2 FEW
02:29 3.3 °F 2.3 °F 1000.9 in Calm     93% 0.0 in WeatherDisplay:10.37 W/m2 FEW
02:33 3.3 °F 2.3 °F 1000.9 in South 6.0 mph 16.7 mph 93% 0.0 in WeatherDisplay:10.37 W/m2 FEW
02:39 3.3 °F 2.3 °F 1001.2 in South 6.8 mph 13.0 mph 93% 0.0 in WeatherDisplay:10.37 W/m2 FEW
02:40 3.3 °F 2.3 °F 1001.2 in SW 2.7 mph 14.8 mph 93% 0.0 in WeatherDisplay:10.37 W/m2 FEW
02:45 3.3 °F 2.3 °F 1000.9 in WSW 0.2 mph 6.4 mph 93% 0.0 in WeatherDisplay:10.37 W/m2 FEW
02:48 3.4 °F 2.4 °F 1000.9 in West 5.5 mph 9.3 mph 93% 0.0 in WeatherDisplay:10.37 W/m2 FEW
02:53 3.3 °F 2.3 °F 1001.2 in SSW 6.9 mph 11.1 mph 93% 0.0 in WeatherDisplay:10.37 W/m2 FEW
02:58 3.3 °F 2.3 °F 1001.2 in SSW 4.2 mph 11.1 mph 93% 0.0 in WeatherDisplay:10.37 W/m2 FEW
03:03 3.3 °F 2.3 °F 1001.2 in Calm   5.6 mph 93% 0.0 in WeatherDisplay:10.37 W/m2 FEW
03:04 3.3 °F 2.3 °F 1001.2 in NNW 2.1 mph 4.8 mph 93% 0.0 in WeatherDisplay:10.37 W/m2 FEW
03:10 3.3 °F 2.4 °F 1001.2 in Calm     94% 0.0 in WeatherDisplay:10.37 W/m2 FEW
03:11 3.3 °F 2.4 °F 1001.2 in Calm     94% 0.0 in WeatherDisplay:10.37 W/m2 FEW
03:17 3.3 °F 2.4 °F 1000.9 in South 5.3 mph 16.7 mph 94% 0.0 in WeatherDisplay:10.37 W/m2 FEW
03:22 3.3 °F 2.4 °F 1000.9 in SSW 3.7 mph 11.1 mph 94% 0.0 in WeatherDisplay:10.37 W/m2 FEW
03:27 3.3 °F 2.4 °F 1000.9 in SE 4.5 mph 8.0 mph 94% 0.0 in WeatherDisplay:10.37 W/m2 FEW
03:28 3.3 °F 2.4 °F 1001.2 in SE 4.5 mph 14.8 mph 94% 0.0 in WeatherDisplay:10.37 W/m2 FEW
03:34 3.3 °F 2.4 °F 1000.9 in Calm     94% 0.0 in WeatherDisplay:10.37 W/m2 FEW
03:37 3.2 °F 2.3 °F 1000.9 in NNW 1.9 mph 5.6 mph 94% 0.0 in WeatherDisplay:10.37 W/m2 FEW
03:42 3.3 °F 2.4 °F 1000.9 in East 7.7 mph 18.5 mph 94% 0.0 in WeatherDisplay:10.37 W/m2 FEW
03:44 3.3 °F 2.4 °F 1000.9 in South 5.8 mph 11.3 mph 94% 0.0 in WeatherDisplay:10.37 W/m2 FEW
03:49 3.3 °F 2.3 °F 1000.9 in South 0.3 mph 9.7 mph 93% 0.0 in WeatherDisplay:10.37 W/m2 FEW
03:54 3.3 °F 2.4 °F 1000.9 in SW 4.2 mph 7.4 mph 94% 0.0 in WeatherDisplay:10.37 W/m2 FEW
03:59 3.3 °F 2.4 °F 1000.9 in SSE 3.4 mph 9.3 mph 94% 0.0 in WeatherDisplay:10.37 W/m2 FEW
04:01 3.3 °F 2.4 °F 1000.9 in South 3.1 mph 9.7 mph 94% 0.0 in WeatherDisplay:10.37 W/m2 FEW
04:06 3.3 °F 2.3 °F 1000.9 in Calm   1.9 mph 93% 0.0 in WeatherDisplay:10.37 W/m2 FEW
04:08 3.3 °F 2.3 °F 1000.9 in Calm     93% 0.0 in WeatherDisplay:10.37 W/m2 FEW
04:14 3.3 °F 2.4 °F 1000.9 in NNE 2.1 mph 5.6 mph 94% 0.0 in WeatherDisplay:10.37 W/m2 FEW
04:19 3.3 °F 2.4 °F 1000.9 in SW 0.2 mph 3.2 mph 94% 0.0 in WeatherDisplay:10.37 W/m2 FEW
04:20 3.3 °F 2.4 °F 1000.6 in SW 0.6 mph 3.7 mph 94% 0.0 in WeatherDisplay:10.37 W/m2 FEW
04:21 3.3 °F 2.4 °F 1000.6 in SSW 1.0 mph 4.8 mph 94% 0.0 in WeatherDisplay:10.37 W/m2 FEW
04:26 3.2 °F 2.3 °F 1000.9 in South 1.0 mph 9.3 mph 94% 0.0 in WeatherDisplay:10.37 W/m2 FEW
04:32 3.2 °F 2.3 °F 1000.9 in SSE 2.6 mph 7.4 mph 94% 0.3 in WeatherDisplay:10.37 W/m2 RA
04:37 3.2 °F 2.2 °F 1000.9 in South 0.3 mph 5.6 mph 93% 0.3 in WeatherDisplay:10.37 W/m2 FEW
04:42 3.2 °F 2.3 °F 1000.6 in NNW 0.8 mph 5.6 mph 94% 0.5 in WeatherDisplay:10.37 W/m2 RA
04:46 3.1 °F 2.2 °F 1000.9 in Calm   3.7 mph 94% 0.5 in WeatherDisplay:10.37 W/m2 RA
04:51 3.1 °F 2.1 °F 1000.6 in SE 2.6 mph 5.6 mph 93% 0.5 in WeatherDisplay:10.37 W/m2 FEW
04:56 3.1 °F 2.1 °F 1000.6 in SE 0.6 mph 7.4 mph 93% 0.5 in WeatherDisplay:10.37 W/m2 FEW
05:01 3.1 °F 2.1 °F 1000.6 in Calm   5.6 mph 93% 0.5 in WeatherDisplay:10.37 W/m2 FEW
05:02 3.1 °F 2.1 °F 1000.6 in Calm     93% 0.5 in WeatherDisplay:10.37 W/m2 FEW
05:07 3.1 °F 2.1 °F 1000.6 in NE 0.8 mph 5.6 mph 93% 0.5 in WeatherDisplay:10.37 W/m2 RA
05:10 3.1 °F 2.1 °F 1000.6 in Calm     93% 0.5 in WeatherDisplay:10.37 W/m2 RA
05:16 3.1 °F 2.1 °F 1000.6 in South 2.6 mph 11.1 mph 93% 0.5 in WeatherDisplay:10.37 W/m2 FEW
05:21 3.1 °F 2.1 °F 1000.6 in South 1.4 mph 9.7 mph 93% 0.5 in WeatherDisplay:10.37 W/m2 FEW
05:26 3.1 °F 2.1 °F 1000.6 in SSE 0.8 mph 9.7 mph 93% 0.5 in WeatherDisplay:10.37 W/m2 FEW
05:32 3.1 °F 2.1 °F 1000.6 in South 2.3 mph 7.4 mph 93% 0.5 in WeatherDisplay:10.37 W/m2 RA
05:37 3.1 °F 2.1 °F 1000.6 in South 3.7 mph 14.8 mph 93% 0.8 in WeatherDisplay:10.37 W/m2 RA
05:42 3.1 °F 2.1 °F 1000.6 in SW 4.5 mph 11.1 mph 93% 0.8 in WeatherDisplay:10.37 W/m2 RA
05:47 3.0 °F 2.0 °F 1000.6 in South 2.6 mph 9.3 mph 93% 1.0 in WeatherDisplay:10.37 W/m2 RA
05:49 3.0 °F 2.0 °F 1000.6 in South 2.4 mph 7.4 mph 93% 1.0 in WeatherDisplay:10.37 W/m2 RA
05:54 3.0 °F 2.0 °F 1000.6 in South 3.1 mph 6.4 mph 93% 1.0 in WeatherDisplay:10.37 W/m2 FEW
05:57 3.0 °F 2.0 °F 1000.6 in WSW 1.0 mph 5.6 mph 93% 1.0 in WeatherDisplay:10.37 W/m2 FEW
06:02 2.9 °F 1.9 °F 1000.6 in SSW 4.5 mph 5.6 mph 93% 1.3 in WeatherDisplay:10.37 W/m2 RA
06:04 2.9 °F 1.9 °F 1000.6 in ESE 7.4 mph 20.9 mph 93% 1.0 in WeatherDisplay:10.37 W/m2 RA
06:09 2.9 °F 1.9 °F 1000.6 in Calm     93% 1.3 in WeatherDisplay:10.37 W/m2 RA
06:13 2.9 °F 1.9 °F 1000.6 in WSW 1.1 mph 5.6 mph 93% 1.3 in WeatherDisplay:10.37 W/m2 RA
06:18 2.9 °F 1.9 °F 1000.2 in South 5.0 mph 7.4 mph 93% 1.3 in WeatherDisplay:10.37 W/m2 FEW
06:19 2.9 °F 1.9 °F 1000.6 in SSW 2.4 mph 5.6 mph 93% 1.3 in WeatherDisplay:10.37 W/m2 FEW
06:24 2.9 °F 1.9 °F 1000.2 in WSW 4.2 mph 5.6 mph 93% 1.5 in WeatherDisplay:10.37 W/m2 RA
06:26 2.9 °F 1.9 °F 1000.2 in South 4.0 mph 5.6 mph 93% 1.5 in WeatherDisplay:10.37 W/m2 RA
06:31 2.9 °F 1.9 °F 1000.2 in SW 3.7 mph 11.1 mph 93% 1.5 in WeatherDisplay:10.37 W/m2 FEW
06:36 2.9 °F 1.9 °F 1000.6 in SE 2.9 mph 6.4 mph 93% 1.0 in WeatherDisplay:10.37 W/m2 FEW
06:42 2.8 °F 1.8 °F 1000.2 in North 0.6 mph 3.7 mph 93% 0.8 in WeatherDisplay:10.37 W/m2 FEW
06:47 2.9 °F 1.9 °F 1000.2 in West 1.4 mph 5.6 mph 93% 0.5 in WeatherDisplay:10.37 W/m2 FEW
06:52 2.9 °F 1.9 °F 1000.2 in SSW 3.7 mph 7.4 mph 93% 0.5 in WeatherDisplay:10.37 W/m2 FEW
06:57 2.9 °F 1.9 °F 1000.2 in SSW 4.3 mph 13.0 mph 93% 0.5 in WeatherDisplay:10.37 W/m2 FEW
07:02 2.9 °F 1.9 °F 1000.2 in ESE 3.7 mph 5.6 mph 93% 0.5 in WeatherDisplay:10.37 W/m2 FEW
07:04 2.9 °F 1.9 °F 1000.2 in Calm     93% 0.5 in WeatherDisplay:10.37 W/m2 FEW
07:08 2.9 °F 1.9 °F 1000.2 in SW 0.8 mph 7.4 mph 93% 0.3 in WeatherDisplay:10.37 W/m2 FEW
07:13 2.8 °F 1.8 °F 1000.2 in SSW 3.5 mph 7.4 mph 93% 0.3 in WeatherDisplay:10.37 W/m2 FEW
07:18 2.9 °F 1.9 °F 1000.2 in SE 3.5 mph 5.6 mph 93% 0.5 in WeatherDisplay:10.37 W/m2 RA
07:19 2.9 °F 1.9 °F 1000.2 in SE 3.2 mph 13.0 mph 93% 0.5 in WeatherDisplay:10.37 W/m2 RA
07:24 2.9 °F 1.9 °F 1000.2 in Calm   9.3 mph 93% 0.3 in WeatherDisplay:10.37 W/m2 RA
07:29 2.8 °F 1.8 °F 1000.2 in East 1.4 mph 3.7 mph 93% 0.3 in WeatherDisplay:10.37 W/m2 FEW
07:30 2.8 °F 1.8 °F 1000.2 in East 1.4 mph 5.6 mph 93% 0.3 in WeatherDisplay:10.37 W/m2 FEW
07:35 2.8 °F 1.8 °F 1000.2 in SSE 1.9 mph 7.4 mph 93% 0.3 in WeatherDisplay:10.37 W/m2 FEW
07:40 2.8 °F 1.8 °F 1000.2 in South 0.3 mph 3.7 mph 93% 0.3 in WeatherDisplay:10.37 W/m2 FEW
07:41 2.8 °F 1.8 °F 1000.2 in South 1.0 mph 9.7 mph 93% 0.3 in WeatherDisplay:10.37 W/m2 FEW
07:42 2.8 °F 1.8 °F 1000.2 in South 1.1 mph 9.3 mph 93% 0.3 in WeatherDisplay:10.37 W/m2 FEW
07:48 2.8 °F 1.8 °F 1000.2 in Calm     93% 0.3 in WeatherDisplay:10.37 W/m2 FEW
07:53 2.8 °F 1.8 °F 1000.2 in South 1.9 mph 16.1 mph 93% 0.3 in WeatherDisplay:10.37 W/m2 FEW
07:58 2.9 °F 1.9 °F 1000.2 in Calm     93% 0.3 in WeatherDisplay:10.37 W/m2 FEW
07:59 2.9 °F 1.9 °F 1000.2 in Calm     93% 0.3 in WeatherDisplay:10.37 W/m2 FEW
08:04 2.9 °F 1.9 °F 1000.2 in SE 2.9 mph 7.4 mph 93% 0.3 in WeatherDisplay:10.37 W/m2 FEW
08:06 2.8 °F 1.8 °F 1000.2 in South 2.3 mph 5.6 mph 93% 0.3 in WeatherDisplay:10.37 W/m2 FEW
08:11 2.8 °F 1.8 °F 1000.2 in South 4.5 mph 11.1 mph 93% 0.3 in WeatherDisplay:10.37 W/m2 FEW
08:16 2.8 °F 1.8 °F 1000.2 in WSW 2.7 mph 5.6 mph 93% 0.0 in WeatherDisplay:10.37 W/m2 FEW
08:21 2.9 °F 1.9 °F 1000.2 in Calm     93% 0.0 in WeatherDisplay:10.37 W/m2 FEW
08:26 2.8 °F 1.8 °F 1000.2 in Calm     93% 0.0 in WeatherDisplay:10.37 W/m2 FEW
08:29 2.8 °F 1.8 °F 1000.2 in SSE 2.3 mph 5.6 mph 93% 0.0 in WeatherDisplay:10.37 W/m2 FEW
08:32 2.8 °F 1.8 °F 1000.2 in SSE 5.5 mph 11.1 mph 93% 0.0 in WeatherDisplay:10.37 W/m2 FEW
08:37 2.8 °F 1.8 °F 1000.6 in South 1.8 mph 11.1 mph 93% 0.0 in WeatherDisplay:10.37 W/m2 FEW
08:42 2.8 °F 1.8 °F 1000.6 in South 0.3 mph   93% 0.0 in WeatherDisplay:10.37 W/m2 FEW
08:47 2.8 °F 1.8 °F 1000.6 in Calm     93% 0.0 in WeatherDisplay:10.37 W/m2 FEW
08:53 2.8 °F 1.8 °F 1000.6 in Calm     93% 0.0 in WeatherDisplay:10.37 W/m2 FEW
08:58 2.8 °F 1.8 °F 1000.6 in SW 0.2 mph 3.2 mph 93% 0.0 in WeatherDisplay:10.37 W/m2 FEW
09:03 2.8 °F 1.8 °F 1000.6 in Calm     93% 0.0 in WeatherDisplay:10.37 W/m2 FEW
09:04 2.8 °F 1.8 °F 1000.6 in Calm     93% 0.0 in WeatherDisplay:10.37 W/m2 FEW
09:14 2.8 °F 1.8 °F 1000.6 in WSW 2.3 mph 6.4 mph 93% 0.0 in WeatherDisplay:10.37 W/m2 FEW
09:18 2.8 °F 1.8 °F 1000.6 in Calm     93% 0.0 in WeatherDisplay:10.37 W/m2 FEW
09:22 2.8 °F 1.8 °F 1000.6 in SSE 1.0 mph 3.2 mph 93% 0.0 in WeatherDisplay:10.37 W/m2 FEW
09:28 2.7 °F 1.7 °F 1000.6 in ESE 0.3 mph 3.7 mph 93% 0.0 in WeatherDisplay:10.37 W/m2 FEW
09:33 2.7 °F 1.7 °F 1000.6 in Calm     93% 0.0 in WeatherDisplay:10.37 W/m2 FEW
09:37 2.7 °F 1.7 °F 1000.6 in SE 2.6 mph 7.4 mph 93% 0.0 in WeatherDisplay:10.37 W/m2 FEW
09:43 2.7 °F 1.7 °F 1000.6 in SE 0.8 mph 6.4 mph 93% 0.0 in WeatherDisplay:10.37 W/m2 FEW
09:48 2.7 °F 1.7 °F 1000.6 in Calm     93% 0.0 in WeatherDisplay:10.37 W/m2 FEW
09:53 2.7 °F 1.7 °F 1000.6 in NNE 1.8 mph 5.6 mph 93% 0.0 in WeatherDisplay:10.37 W/m2 FEW
09:54 2.7 °F 1.7 °F 1000.6 in Calm     93% 0.0 in WeatherDisplay:10.37 W/m2 FEW
09:59 2.7 °F 1.7 °F 1000.6 in SW 1.6 mph 5.6 mph 93% 0.0 in WeatherDisplay:10.37 W/m2 FEW
10:00 2.7 °F 1.7 °F 1000.6 in SW 0.5 mph 5.6 mph 93% 0.0 in WeatherDisplay:10.37 W/m2 FEW
10:05 2.7 °F 1.7 °F 1000.6 in Calm     93% 0.0 in WeatherDisplay:10.37 W/m2 FEW
10:11 2.7 °F 1.7 °F 1000.6 in SE 1.6 mph 11.1 mph 93% 0.0 in WeatherDisplay:10.37 W/m2 FEW
10:16 2.7 °F 1.7 °F 1000.6 in Calm     93% 0.0 in WeatherDisplay:10.37 W/m2 FEW
10:21 2.7 °F 1.7 °F 1000.6 in Calm     93% 0.0 in WeatherDisplay:10.37 W/m2 FEW
10:26 2.6 °F 1.6 °F 1000.6 in ESE 1.1 mph 6.4 mph 93% 0.0 in WeatherDisplay:10.37 W/m2 FEW
10:31 2.6 °F 1.6 °F 1000.6 in Calm     93% 0.0 in WeatherDisplay:10.37 W/m2 FEW
10:36 2.6 °F 1.6 °F 1000.6 in SW 2.7 mph 5.6 mph 93% 0.0 in WeatherDisplay:10.37 W/m2 FEW
10:46 2.6 °F 1.6 °F 1000.6 in SSE 0.2 mph 5.6 mph 93% 0.0 in WeatherDisplay:10.37 W/m2 FEW
10:51 2.6 °F 1.6 °F 1000.6 in SSE 1.0 mph 5.6 mph 93% 0.0 in WeatherDisplay:10.37 W/m2 FEW
10:52 2.6 °F 1.6 °F 1000.6 in SSE 0.2 mph 3.2 mph 93% 0.0 in WeatherDisplay:10.37 W/m2 FEW
10:57 2.6 °F 1.6 °F 1000.6 in South 1.4 mph 13.0 mph 93% 0.0 in WeatherDisplay:10.37 W/m2 FEW
11:00 2.7 °F 1.7 °F 1000.6 in Calm   3.7 mph 93% 0.0 in WeatherDisplay:10.37 W/m2 FEW
11:03 2.7 °F 1.7 °F 1000.6 in Calm     93% 0.0 in WeatherDisplay:10.37 W/m2 FEW
11:08 2.6 °F 1.6 °F 1000.6 in Calm     93% 0.0 in WeatherDisplay:10.37 W/m2 FEW
11:09 2.6 °F 1.6 °F 1000.6 in Calm     93% 0.0 in WeatherDisplay:10.37 W/m2 FEW
11:14 2.6 °F 1.6 °F 1000.6 in Calm     93% 0.0 in WeatherDisplay:10.37 W/m2 FEW
11:18 2.6 °F 1.6 °F 1000.6 in Calm   3.7 mph 93% 0.0 in WeatherDisplay:10.37 W/m2 FEW
11:23 2.6 °F 1.6 °F 1000.2 in Calm   3.7 mph 93% 0.0 in WeatherDisplay:10.37 W/m2 FEW
11:27 2.6 °F 1.6 °F 1000.2 in Calm     93% 0.0 in WeatherDisplay:10.37 W/m2 FEW
11:32 2.7 °F 1.7 °F 1000.6 in South 0.3 mph 5.6 mph 93% 0.0 in WeatherDisplay:10.37 W/m2 FEW
11:37 2.7 °F 1.7 °F 1000.2 in Calm   3.7 mph 93% 0.0 in WeatherDisplay:10.37 W/m2 FEW
11:39 2.6 °F 1.6 °F 1000.2 in Calm     93% 0.0 in WeatherDisplay:10.37 W/m2 FEW
11:45 2.6 °F 1.6 °F 1000.2 in Calm   6.4 mph 93% 0.0 in WeatherDisplay:10.37 W/m2 FEW
11:50 2.6 °F 1.6 °F 1000.2 in Calm     93% 0.0 in WeatherDisplay:10.37 W/m2 FEW
11:54 2.6 °F 1.6 °F 1000.2 in Calm     93% 0.0 in WeatherDisplay:10.37 W/m2 FEW
11:59 2.6 °F 1.6 °F 1000.2 in Calm     93% 0.0 in WeatherDisplay:10.37 W/m2 FEW
12:00 2.6 °F 1.6 °F 1000.2 in Calm     93% 0.0 in WeatherDisplay:10.37 W/m2 FEW
12:06 2.6 °F 1.6 °F 1000.2 in Calm     93% 0.0 in WeatherDisplay:10.37 W/m2 FEW
12:11 2.6 °F 1.6 °F 1000.2 in Calm     93% 0.0 in WeatherDisplay:10.37 W/m2 FEW
12:16 2.6 °F 1.6 °F 1000.2 in Calm     93% 0.0 in WeatherDisplay:10.37 W/m2 FEW
12:21 2.6 °F 1.6 °F 999.9 in Calm     93% 0.0 in WeatherDisplay:10.37 W/m2 FEW
12:23 2.6 °F 1.6 °F 999.9 in Calm     93% 0.0 in WeatherDisplay:10.37 W/m2 FEW
12:28 2.6 °F 1.6 °F 999.9 in Calm     93% 0.0 in WeatherDisplay:10.37 W/m2 FEW
12:33 2.6 °F 1.6 °F 999.9 in Calm     93% 0.0 in WeatherDisplay:10.37 W/m2 FEW
12:39 2.6 °F 1.6 °F 999.9 in SE 0.2 mph 3.7 mph 93% 0.0 in WeatherDisplay:10.37 W/m2 FEW
12:41 2.6 °F 1.6 °F 999.9 in Calm     93% 0.0 in WeatherDisplay:10.37 W/m2 FEW
12:46 2.6 °F 1.6 °F 999.9 in Calm   1.9 mph 93% 0.0 in WeatherDisplay:10.37 W/m2 FEW
12:51 2.6 °F 1.6 °F 999.9 in South 0.8 mph 1.6 mph 93% 0.0 in WeatherDisplay:10.37 W/m2 FEW
12:56 2.6 °F 1.6 °F 999.9 in South 1.1 mph 5.6 mph 93% 0.0 in WeatherDisplay:10.37 W/m2 FEW
12:58 2.6 °F 1.6 °F 999.9 in South 0.3 mph 1.9 mph 93% 0.0 in WeatherDisplay:10.37 W/m2 FEW
13:03 2.6 °F 1.6 °F 999.9 in SSW 3.4 mph 7.4 mph 93% 0.0 in WeatherDisplay:10.37 W/m2 FEW
13:08 2.6 °F 1.6 °F 999.9 in South 1.3 mph 5.6 mph 93% 0.0 in WeatherDisplay:10.37 W/m2 FEW
13:09 2.6 °F 1.6 °F 999.9 in Calm     93% 0.0 in WeatherDisplay:10.37 W/m2 FEW
13:14 2.5 °F 1.5 °F 999.9 in Calm   5.6 mph 93% 0.0 in WeatherDisplay:10.37 W/m2 FEW
13:16 2.5 °F 1.5 °F 999.9 in Calm     93% 0.0 in WeatherDisplay:10.37 W/m2 FEW
13:18 2.5 °F 1.5 °F 999.9 in Calm     93% 0.0 in WeatherDisplay:10.37 W/m2 FEW
13:23 2.5 °F 1.5 °F 999.9 in Calm     93% 0.0 in WeatherDisplay:10.37 W/m2 FEW
13:28 2.4 °F 1.4 °F 999.9 in Calm     93% 0.0 in WeatherDisplay:10.37 W/m2 FEW
13:33 2.4 °F 1.4 °F 999.9 in SSW 0.6 mph 5.6 mph 93% 0.0 in WeatherDisplay:10.37 W/m2 FEW
13:38 2.4 °F 1.4 °F 999.9 in ESE 1.3 mph 5.6 mph 93% 0.0 in WeatherDisplay:10.37 W/m2 FEW
13:43 2.4 °F 1.4 °F 999.9 in SE 4.2 mph 5.6 mph 93% 0.0 in WeatherDisplay:10.37 W/m2 FEW
13:48 2.4 °F 1.4 °F 999.9 in Calm     93% 0.0 in WeatherDisplay:10.37 W/m2 FEW
13:52 2.4 °F 1.4 °F 999.5 in Calm     93% 0.0 in WeatherDisplay:10.37 W/m2 FEW
13:58 2.4 °F 1.4 °F 999.5 in Calm     93% 0.0 in WeatherDisplay:10.37 W/m2 FEW
14:02 2.3 °F 1.3 °F 999.5 in Calm     93% 0.0 in WeatherDisplay:10.37 W/m2 FEW
14:08 2.3 °F 1.3 °F 999.5 in Calm     93% 0.0 in WeatherDisplay:10.37 W/m2 FEW
14:11 2.4 °F 1.4 °F 999.5 in Calm     93% 0.0 in WeatherDisplay:10.37 W/m2 FEW
14:16 2.3 °F 1.3 °F 999.5 in Calm     93% 0.0 in WeatherDisplay:10.37 W/m2 FEW
14:21 2.3 °F 1.3 °F 999.9 in Calm     93% 0.0 in WeatherDisplay:10.37 W/m2 FEW
14:24 2.3 °F 1.3 °F 999.5 in Calm     93% 0.0 in WeatherDisplay:10.37 W/m2 FEW
14:25 2.3 °F 1.3 °F 999.5 in SE 0.6 mph 3.7 mph 93% 0.0 in WeatherDisplay:10.37 W/m2 FEW
14:36 2.3 °F 1.3 °F 999.5 in Calm     93% 0.0 in WeatherDisplay:10.37 W/m2 FEW
14:41 2.3 °F 1.3 °F 999.5 in Calm     93% 0.0 in WeatherDisplay:10.37 W/m2 FEW
14:46 2.3 °F 1.3 °F 999.5 in Calm     93% 0.0 in WeatherDisplay:10.37 W/m2 FEW
14:51 2.2 °F 1.2 °F 999.5 in Calm     93% 0.0 in WeatherDisplay:10.37 W/m2 FEW
14:53 2.2 °F 1.2 °F 999.5 in Calm     93% 0.0 in WeatherDisplay:10.37 W/m2 FEW
14:58 2.2 °F 1.2 °F 999.5 in Calm     93% 0.0 in WeatherDisplay:10.37 W/m2 FEW
15:03 2.2 °F 1.2 °F 999.5 in Calm     93% 0.0 in WeatherDisplay:10.37 W/m2 FEW
15:08 2.2 °F 1.2 °F 999.5 in Calm     93% 0.0 in WeatherDisplay:10.37 W/m2 FEW
15:13 2.2 °F 1.2 °F 999.5 in Calm     93% 0.0 in WeatherDisplay:10.37 W/m2 FEW
15:18 2.2 °F 1.2 °F 999.5 in Calm     93% 0.0 in WeatherDisplay:10.37 W/m2 FEW
15:23 2.2 °F 1.2 °F 999.5 in Calm     93% 0.0 in WeatherDisplay:10.37 W/m2 FEW
15:28 2.2 °F 1.2 °F 999.5 in Calm     93% 0.0 in WeatherDisplay:10.37 W/m2 FEW
15:33 2.2 °F 1.2 °F 999.2 in Calm     93% 0.0 in WeatherDisplay:10.37 W/m2 FEW
15:38 2.2 °F 1.2 °F 999.2 in Calm     93% 0.0 in WeatherDisplay:10.37 W/m2 FEW
15:43 2.2 °F 1.2 °F 999.2 in Calm     93% 0.0 in WeatherDisplay:10.37 W/m2 FEW
15:44 2.2 °F 1.2 °F 999.2 in Calm     93% 0.0 in WeatherDisplay:10.37 W/m2 FEW
15:49 2.2 °F 1.2 °F 999.2 in Calm     93% 0.0 in WeatherDisplay:10.37 W/m2 FEW
15:50 2.2 °F 1.2 °F 999.2 in SE 2.6 mph 5.6 mph 93% 0.0 in WeatherDisplay:10.37 W/m2 FEW
15:56 2.2 °F 1.2 °F 999.2 in SE 0.2 mph 3.7 mph 93% 0.0 in WeatherDisplay:10.37 W/m2 FEW
16:01 2.2 °F 1.2 °F 999.2 in Calm     93% 0.0 in WeatherDisplay:10.37 W/m2 FEW
16:06 2.2 °F 1.2 °F 999.2 in SE 2.3 mph 3.7 mph 93% 0.0 in WeatherDisplay:10.37 W/m2 FEW
16:11 2.2 °F 1.2 °F 999.2 in Calm     93% 0.0 in WeatherDisplay:10.37 W/m2 FEW
16:12 2.2 °F 1.2 °F 999.2 in SE 1.1 mph 1.9 mph 93% 0.0 in WeatherDisplay:10.37 W/m2 FEW
16:18 2.2 °F 1.2 °F 999.2 in Calm     93% 0.0 in WeatherDisplay:10.37 W/m2 FEW
16:23 2.2 °F 1.2 °F 999.2 in Calm   1.6 mph 93% 0.0 in WeatherDisplay:10.37 W/m2 FEW
16:25 2.2 °F 1.2 °F 999.2 in ESE 0.5 mph 3.7 mph 93% 0.0 in WeatherDisplay:10.37 W/m2 FEW
16:30 2.2 °F 1.2 °F 999.2 in Calm     93% 0.0 in WeatherDisplay:10.37 W/m2 FEW
16:35 2.2 °F 1.2 °F 999.2 in Calm     93% 0.0 in WeatherDisplay:10.37 W/m2 FEW
16:38 2.2 °F 1.2 °F 999.2 in SE 1.3 mph 3.7 mph 93% 0.0 in WeatherDisplay:10.37 W/m2 FEW
16:43 2.2 °F 1.2 °F 999.2 in Calm   1.9 mph 93% 0.0 in WeatherDisplay:10.37 W/m2 FEW
16:46 2.2 °F 1.2 °F 999.2 in SE 0.3 mph 1.9 mph 93% 0.0 in WeatherDisplay:10.37 W/m2 FEW
16:51 2.2 °F 1.2 °F 999.2 in ESE 0.5 mph 5.6 mph 93% 0.0 in WeatherDisplay:10.37 W/m2 FEW
16:56 2.2 °F 1.2 °F 999.2 in East 0.6 mph 5.6 mph 93% 0.0 in WeatherDisplay:10.37 W/m2 FEW
17:01 2.2 °F 1.2 °F 999.2 in ESE 0.6 mph 3.7 mph 93% 0.0 in WeatherDisplay:10.37 W/m2 FEW
17:02 2.2 °F 1.2 °F 999.2 in Calm     93% 0.0 in WeatherDisplay:10.37 W/m2 FEW
17:07 2.2 °F 1.2 °F 999.2 in Calm     93% 0.0 in WeatherDisplay:10.37 W/m2 FEW
17:12 2.2 °F 1.2 °F 999.2 in East 0.2 mph 1.9 mph 93% 0.0 in WeatherDisplay:10.37 W/m2 FEW
17:16 2.2 °F 1.2 °F 999.2 in ESE 3.1 mph 11.1 mph 93% 0.0 in WeatherDisplay:10.37 W/m2 FEW
17:19 2.2 °F 1.2 °F 999.2 in Calm   3.7 mph 93% 0.0 in WeatherDisplay:10.37 W/m2 FEW
17:24 2.2 °F 1.2 °F 998.9 in Calm   5.6 mph 93% 0.0 in WeatherDisplay:10.37 W/m2 FEW
17:29 2.2 °F 1.2 °F 998.9 in Calm     93% 0.0 in WeatherDisplay:10.37 W/m2 FEW
17:34 2.2 °F 1.2 °F 999.2 in Calm     93% 0.0 in WeatherDisplay:10.37 W/m2 FEW
17:39 2.2 °F 1.2 °F 999.2 in Calm     93% 0.0 in WeatherDisplay:10.37 W/m2 FEW
17:43 2.2 °F 1.2 °F 999.2 in Calm     93% 0.0 in WeatherDisplay:10.37 W/m2 FEW
17:48 2.2 °F 1.2 °F 999.2 in ENE 6.3 mph 14.8 mph 93% 0.0 in WeatherDisplay:10.37 W/m2 FEW
17:53 2.2 °F 1.2 °F 998.9 in SSE 1.1 mph 8.0 mph 93% 0.0 in WeatherDisplay:10.37 W/m2 FEW
17:55 2.2 °F 1.2 °F 998.9 in SSE 4.3 mph 7.4 mph 93% 0.0 in WeatherDisplay:10.37 W/m2 FEW
18:00 2.1 °F 1.1 °F 998.9 in Calm   1.9 mph 93% 0.0 in WeatherDisplay:10.37 W/m2 FEW
18:05 2.1 °F 1.1 °F 998.9 in SSE 0.8 mph 5.6 mph 93% 0.0 in WeatherDisplay:10.37 W/m2 FEW
18:07 2.1 °F 1.1 °F 998.9 in Calm     93% 0.0 in WeatherDisplay:10.37 W/m2 FEW
18:12 2.1 °F 1.1 °F 998.9 in SSE 1.4 mph 5.6 mph 93% 0.0 in WeatherDisplay:10.37 W/m2 FEW
18:17 2.1 °F 1.1 °F 998.9 in SE 0.6 mph 7.4 mph 93% 0.0 in WeatherDisplay:10.37 W/m2 FEW
18:18 2.1 °F 1.1 °F 998.9 in SSE 1.0 mph 8.0 mph 93% 0.0 in WeatherDisplay:10.37 W/m2 FEW
18:24 2.1 °F 1.1 °F 998.9 in East 2.9 mph 5.6 mph 93% 0.0 in WeatherDisplay:10.37 W/m2 FEW
18:25 2.0 °F 1.0 °F 998.9 in East 0.5 mph 5.6 mph 93% 0.0 in WeatherDisplay:10.37 W/m2 FEW
18:30 2.0 °F 1.0 °F 998.9 in SE 2.6 mph 5.6 mph 93% 0.0 in WeatherDisplay:10.37 W/m2 FEW
18:35 2.0 °F 1.0 °F 998.9 in Calm   3.7 mph 93% 0.0 in WeatherDisplay:10.37 W/m2 FEW
18:40 1.9 °F 0.9 °F 998.9 in Calm     93% 0.0 in WeatherDisplay:10.37 W/m2 FEW
18:45 1.9 °F 0.9 °F 998.9 in Calm     93% 0.0 in WeatherDisplay:10.37 W/m2 FEW
18:50 1.9 °F 0.9 °F 999.2 in East 0.8 mph 3.2 mph 93% 0.0 in WeatherDisplay:10.37 W/m2 FEW
18:54 1.9 °F 0.9 °F 999.2 in Calm     93% 0.3 in WeatherDisplay:10.37 W/m2 RA
18:55 1.9 °F 0.9 °F 998.9 in Calm     93% 0.3 in WeatherDisplay:10.37 W/m2 RA
19:00 1.9 °F 0.9 °F 998.9 in SE 0.5 mph 3.7 mph 93% 0.3 in WeatherDisplay:10.37 W/m2 RA
19:05 1.8 °F 0.8 °F 998.9 in Calm     93% 0.3 in WeatherDisplay:10.37 W/m2 FEW
19:10 1.8 °F 0.8 °F 998.9 in ESE 0.6 mph 4.8 mph 93% 0.3 in WeatherDisplay:10.37 W/m2 FEW
19:14 1.8 °F 0.8 °F 998.9 in East 0.2 mph 1.9 mph 93% 0.3 in WeatherDisplay:10.37 W/m2 FEW
19:19 1.8 °F 0.8 °F 999.2 in SE 3.4 mph 5.6 mph 93% 0.3 in WeatherDisplay:10.37 W/m2 FEW
19:24 1.8 °F 0.8 °F 999.2 in Calm     93% 0.3 in WeatherDisplay:10.37 W/m2 FEW
19:27 1.7 °F 0.7 °F 999.2 in ESE 3.5 mph 5.6 mph 93% 0.3 in WeatherDisplay:10.37 W/m2 FEW
19:33 1.7 °F 0.7 °F 999.2 in SE 2.6 mph 7.4 mph 93% 0.3 in WeatherDisplay:10.37 W/m2 FEW
19:38 1.7 °F 0.7 °F 999.2 in Calm     93% 0.3 in WeatherDisplay:10.37 W/m2 FEW
19:43 1.7 °F 0.7 °F 999.2 in Calm     93% 0.3 in WeatherDisplay:10.37 W/m2 FEW
19:47 1.6 °F 0.6 °F 999.2 in Calm     93% 0.3 in WeatherDisplay:10.37 W/m2 FEW
19:49 1.7 °F 0.7 °F 998.9 in East 1.3 mph 3.7 mph 93% 0.3 in WeatherDisplay:10.37 W/m2 FEW
19:54 1.6 °F 0.6 °F 998.9 in SSE 1.9 mph 6.4 mph 93% 0.0 in WeatherDisplay:10.37 W/m2 FEW
19:59 1.6 °F 0.6 °F 998.9 in Calm     93% 0.0 in WeatherDisplay:10.37 W/m2 FEW
20:04 1.6 °F 0.6 °F 998.9 in ESE 2.9 mph 4.8 mph 93% 0.0 in WeatherDisplay:10.37 W/m2 FEW
20:05 1.6 °F 0.6 °F 998.9 in ENE 3.4 mph 6.4 mph 93% 0.0 in WeatherDisplay:10.37 W/m2 FEW
20:11 1.6 °F 0.6 °F 998.9 in ESE 2.6 mph 7.4 mph 93% 0.3 in WeatherDisplay:10.37 W/m2 RA
20:16 1.6 °F 0.6 °F 998.9 in ESE 1.8 mph 5.6 mph 93% 0.3 in WeatherDisplay:10.37 W/m2 RA
20:22 1.7 °F 0.7 °F 998.9 in East 1.1 mph 5.6 mph 93% 0.3 in WeatherDisplay:10.37 W/m2 FEW
20:31 1.7 °F 0.7 °F 998.9 in SE 4.7 mph 11.1 mph 93% 0.3 in WeatherDisplay:10.37 W/m2 FEW
20:36 1.6 °F 0.6 °F 998.9 in ESE 4.5 mph 9.3 mph 93% 0.3 in WeatherDisplay:10.37 W/m2 FEW
20:41 1.6 °F 0.6 °F 998.9 in ESE 0.5 mph 3.2 mph 93% 0.3 in WeatherDisplay:10.37 W/m2 FEW
20:42 1.6 °F 0.6 °F 998.9 in East 6.3 mph 9.7 mph 93% 0.3 in WeatherDisplay:10.37 W/m2 FEW
20:48 1.6 °F 0.6 °F 998.9 in ESE 2.9 mph 5.6 mph 93% 0.3 in WeatherDisplay:10.37 W/m2 FEW
20:53 1.6 °F 0.6 °F 998.9 in Calm     93% 0.3 in WeatherDisplay:10.37 W/m2 FEW
20:59 1.6 °F 0.6 °F 998.9 in ENE 3.9 mph 7.4 mph 93% 0.3 in WeatherDisplay:10.37 W/m2 FEW
21:01 1.6 °F 0.6 °F 998.9 in ENE 1.0 mph 8.0 mph 93% 0.3 in WeatherDisplay:10.37 W/m2 FEW
21:05 1.6 °F 0.6 °F 998.9 in ESE 2.7 mph 4.8 mph 93% 0.3 in WeatherDisplay:10.37 W/m2 FEW
21:10 1.6 °F 0.6 °F 998.9 in ESE 2.4 mph 5.6 mph 93% 0.0 in WeatherDisplay:10.37 W/m2 FEW
21:15 1.5 °F 0.5 °F 998.9 in East 3.9 mph 9.3 mph 93% 0.0 in WeatherDisplay:10.37 W/m2 FEW
21:20 1.5 °F 0.5 °F 998.9 in Calm   3.7 mph 93% 0.0 in WeatherDisplay:10.37 W/m2 FEW
21:25 1.5 °F 0.5 °F 998.9 in Calm     93% 0.0 in WeatherDisplay:10.37 W/m2 FEW
21:30 1.4 °F 0.4 °F 998.9 in ESE 3.4 mph 5.6 mph 93% 0.0 in WeatherDisplay:10.37 W/m2 FEW
21:31 1.4 °F 0.4 °F 998.9 in ESE 1.4 mph 5.6 mph 93% 0.0 in WeatherDisplay:10.37 W/m2 FEW
21:37 1.4 °F 0.4 °F 998.9 in Calm     93% 0.0 in WeatherDisplay:10.37 W/m2 FEW
21:42 1.4 °F 0.4 °F 998.9 in Calm   5.6 mph 93% 0.0 in WeatherDisplay:10.37 W/m2 FEW
21:44 1.4 °F 0.4 °F 998.9 in ESE 3.7 mph 5.6 mph 93% 0.0 in WeatherDisplay:10.37 W/m2 FEW
21:49 1.4 °F 0.4 °F 998.9 in ESE 1.9 mph 5.6 mph 93% 0.0 in WeatherDisplay:10.37 W/m2 FEW
21:54 1.4 °F 0.4 °F 998.9 in NE 2.9 mph 9.3 mph 93% 0.0 in WeatherDisplay:10.37 W/m2 FEW
22:04 1.4 °F 0.4 °F 998.9 in Calm   5.6 mph 93% 0.0 in WeatherDisplay:10.37 W/m2 FEW
22:06 1.4 °F 0.4 °F 998.9 in Calm   1.9 mph 93% 0.0 in WeatherDisplay:10.37 W/m2 FEW
22:11 1.4 °F 0.4 °F 998.9 in Calm     93% 0.0 in WeatherDisplay:10.37 W/m2 FEW
22:18 1.4 °F 0.4 °F 998.5 in East 1.1 mph 5.6 mph 93% 0.0 in WeatherDisplay:10.37 W/m2 FEW
22:23 1.4 °F 0.4 °F 998.5 in East 4.0 mph 9.3 mph 93% 0.0 in WeatherDisplay:10.37 W/m2 FEW
22:28 1.4 °F 0.4 °F 998.5 in ESE 2.9 mph 5.6 mph 93% 0.0 in WeatherDisplay:10.37 W/m2 FEW
22:32 1.4 °F 0.4 °F 998.5 in Calm     93% 0.0 in WeatherDisplay:10.37 W/m2 FEW
22:38 1.4 °F 0.4 °F 998.5 in ESE 4.5 mph 11.1 mph 93% 0.0 in WeatherDisplay:10.37 W/m2 FEW
22:43 1.4 °F 0.4 °F 998.5 in East 0.3 mph 4.8 mph 93% 0.0 in WeatherDisplay:10.37 W/m2 FEW
22:48 1.4 °F 0.4 °F 998.5 in Calm     93% 0.0 in WeatherDisplay:10.37 W/m2 FEW
22:53 1.4 °F 0.4 °F 998.5 in Calm     93% 0.0 in WeatherDisplay:10.37 W/m2 FEW
22:58 1.4 °F 0.4 °F 998.5 in East 4.7 mph 7.4 mph 93% 0.0 in WeatherDisplay:10.37 W/m2 FEW
23:01 1.4 °F 0.4 °F 998.5 in Calm     93% 0.0 in WeatherDisplay:10.37 W/m2 FEW
23:02 1.4 °F 0.4 °F 998.5 in Calm     93% 0.0 in WeatherDisplay:10.37 W/m2 FEW
23:07 1.4 °F 0.4 °F 998.5 in East 2.7 mph 5.6 mph 93% 0.0 in WeatherDisplay:10.37 W/m2 FEW
23:12 1.4 °F 0.4 °F 998.5 in ESE 3.4 mph 5.6 mph 93% 0.0 in WeatherDisplay:10.37 W/m2 FEW
23:17 1.4 °F 0.4 °F 998.5 in ESE 7.6 mph 12.9 mph 93% 0.0 in WeatherDisplay:10.37 W/m2 FEW
23:22 1.3 °F 0.3 °F 998.5 in SSE 8.2 mph 13.0 mph 93% 0.0 in WeatherDisplay:10.37 W/m2 FEW
23:26 1.3 °F 0.3 °F 998.5 in Calm   1.9 mph 93% 0.0 in WeatherDisplay:10.37 W/m2 FEW
23:30 1.3 °F 0.3 °F 998.5 in East 6.3 mph 13.0 mph 93% 0.0 in WeatherDisplay:10.37 W/m2 FEW
23:36 1.3 °F 0.3 °F 998.5 in SSE 2.7 mph 11.1 mph 93% 0.0 in WeatherDisplay:10.37 W/m2 FEW
23:41 1.3 °F 0.3 °F 998.5 in SE 3.9 mph 14.8 mph 93% 0.0 in WeatherDisplay:10.37 W/m2 FEW
23:46 1.3 °F 0.3 °F 998.5 in ESE 5.1 mph 9.3 mph 93% 0.0 in WeatherDisplay:10.37 W/m2 FEW
23:51 1.2 °F 0.2 °F 998.2 in East 2.3 mph 13.0 mph 93% 0.0 in WeatherDisplay:10.37 W/m2 FEW
23:56 1.2 °F 0.2 °F 998.5 in ESE 2.3 mph 3.7 mph 93% 0.0 in WeatherDisplay:10.37 W/m2 FEW
Tuulensuunkaari, Veikkola, Suomi
Compliments of Weather Underground - 2.75 mb